sensor_id;sensor_type;location;lat;lon;timestamp;pressure;altitude;pressure_sealevel;temperature;humidity
7018;BME280;3549;42.162;24.726;2023-04-08T00:00:33;47622.88;;;-141.97;48.11
7018;BME280;3549;42.162;24.726;2023-04-08T00:03:00;47657.47;;;-141.97;48.04
7018;BME280;3549;42.162;24.726;2023-04-08T00:05:25;47580.59;;;-141.97;47.95
7018;BME280;3549;42.162;24.726;2023-04-08T00:07:51;47649.78;;;-141.97;47.07
7018;BME280;3549;42.162;24.726;2023-04-08T00:10:16;47624.78;;;-141.97;46.87
7018;BME280;3549;42.162;24.726;2023-04-08T00:12:42;47486.41;;;-141.97;46.30
7018;BME280;3549;42.162;24.726;2023-04-08T00:15:07;47607.50;;;-141.97;46.37
7018;BME280;3549;42.162;24.726;2023-04-08T00:17:33;47686.31;;;-141.97;46.45
7018;BME280;3549;42.162;24.726;2023-04-08T00:19:58;47738.19;;;-141.97;46.73
7018;BME280;3549;42.162;24.726;2023-04-08T00:22:24;47640.16;;;-141.97;46.97
7018;BME280;3549;42.162;24.726;2023-04-08T00:24:50;47722.81;;;-141.97;46.66
7018;BME280;3549;42.162;24.726;2023-04-08T00:27:15;47580.59;;;-141.97;45.63
7018;BME280;3549;42.162;24.726;2023-04-08T00:29:40;47738.19;;;-141.97;45.15
7018;BME280;3549;42.162;24.726;2023-04-08T00:32:06;47469.09;;;-141.97;44.92
7018;BME280;3549;42.162;24.726;2023-04-08T00:34:31;47611.34;;;-141.97;45.08
7018;BME280;3549;42.162;24.726;2023-04-08T00:36:58;47678.63;;;-141.97;45.40
7018;BME280;3549;42.162;24.726;2023-04-08T00:39:25;47622.88;;;-141.97;45.90
7018;BME280;3549;42.162;24.726;2023-04-08T00:41:50;47594.03;;;-141.97;45.94
7018;BME280;3549;42.162;24.726;2023-04-08T00:44:16;47615.19;;;-141.97;46.42
7018;BME280;3549;42.162;24.726;2023-04-08T00:46:41;47657.47;;;-141.97;46.87
7018;BME280;3549;42.162;24.726;2023-04-08T00:49:07;47590.19;;;-141.97;47.02
7018;BME280;3549;42.162;24.726;2023-04-08T00:51:33;47747.81;;;-141.97;47.35
7018;BME280;3549;42.162;24.726;2023-04-08T00:54:01;47595.97;;;-141.97;47.58
7018;BME280;3549;42.162;24.726;2023-04-08T00:56:26;47580.59;;;-141.97;47.72
7018;BME280;3549;42.162;24.726;2023-04-08T00:58:52;47484.47;;;-141.97;48.01
7018;BME280;3549;42.162;24.726;2023-04-08T01:01:58;47628.63;;;-141.97;47.84
7018;BME280;3549;42.162;24.726;2023-04-08T01:07:26;47649.78;;;-141.97;48.35
7018;BME280;3549;42.162;24.726;2023-04-08T01:10:00;47669.00;;;-141.97;49.29
7018;BME280;3549;42.162;24.726;2023-04-08T01:12:29;47657.47;;;-141.97;50.00
7018;BME280;3549;42.162;24.726;2023-04-08T01:14:59;47665.16;;;-141.97;51.47
7018;BME280;3549;42.162;24.726;2023-04-08T01:17:25;47676.69;;;-141.97;51.65
7018;BME280;3549;42.162;24.726;2023-04-08T01:19:53;47799.72;;;-141.97;53.30
7018;BME280;3549;42.162;24.726;2023-04-08T01:25:09;47661.31;;;-141.97;59.09
7018;BME280;3549;42.162;24.726;2023-04-08T01:27:37;47692.06;;;-141.97;62.06
7018;BME280;3549;42.162;24.726;2023-04-08T01:30:05;47626.72;;;-141.97;65.09
7018;BME280;3549;42.162;24.726;2023-04-08T01:32:33;47695.91;;;-141.97;67.03
7018;BME280;3549;42.162;24.726;2023-04-08T01:35:00;47580.59;;;-141.97;70.84
7018;BME280;3549;42.162;24.726;2023-04-08T01:37:27;47640.16;;;-141.97;70.44
7018;BME280;3549;42.162;24.726;2023-04-08T01:39:54;47661.31;;;-141.97;71.32
7018;BME280;3549;42.162;24.726;2023-04-08T01:42:22;47542.16;;;-141.97;72.48
7018;BME280;3549;42.162;24.726;2023-04-08T01:44:49;47707.44;;;-141.97;72.96
7018;BME280;3549;42.162;24.726;2023-04-08T01:47:15;47496.00;;;-141.97;72.87
7018;BME280;3549;42.162;24.726;2023-04-08T01:49:41;47626.72;;;-141.97;73.88
7018;BME280;3549;42.162;24.726;2023-04-08T01:52:08;47692.06;;;-141.97;74.22
7018;BME280;3549;42.162;24.726;2023-04-08T01:54:34;47661.31;;;-141.97;74.60
7018;BME280;3549;42.162;24.726;2023-04-08T01:57:02;47638.25;;;-141.97;74.79
7018;BME280;3549;42.162;24.726;2023-04-08T01:59:34;47718.97;;;-141.97;74.87
7018;BME280;3549;42.162;24.726;2023-04-08T02:02:01;47594.03;;;-141.97;75.27
7018;BME280;3549;42.162;24.726;2023-04-08T02:04:29;47594.03;;;-141.97;75.73
7018;BME280;3549;42.162;24.726;2023-04-08T02:06:57;47484.47;;;-141.97;76.05
7018;BME280;3549;42.162;24.726;2023-04-08T02:09:23;47465.25;;;-141.97;76.47
7018;BME280;3549;42.162;24.726;2023-04-08T02:11:49;47720.91;;;-141.97;77.88
7018;BME280;3549;42.162;24.726;2023-04-08T02:14:14;47553.69;;;-141.97;78.14
7018;BME280;3549;42.162;24.726;2023-04-08T02:16:52;47642.09;;;-141.97;77.84
7018;BME280;3549;42.162;24.726;2023-04-08T02:22:25;47649.78;;;-141.97;78.91
7018;BME280;3549;42.162;24.726;2023-04-08T02:24:52;47640.16;;;-141.97;78.79
7018;BME280;3549;42.162;24.726;2023-04-08T02:27:18;47626.72;;;-141.97;78.78
7018;BME280;3549;42.162;24.726;2023-04-08T02:29:44;47684.38;;;-141.97;78.65
7018;BME280;3549;42.162;24.726;2023-04-08T02:32:11;47617.09;;;-141.97;79.18
7018;BME280;3549;42.162;24.726;2023-04-08T02:34:42;47795.88;;;-141.97;79.47
7018;BME280;3549;42.162;24.726;2023-04-08T02:37:08;47694.00;;;-141.97;80.82
7018;BME280;3549;42.162;24.726;2023-04-08T02:39:34;47642.09;;;-141.97;81.31
7018;BME280;3549;42.162;24.726;2023-04-08T02:42:00;47632.47;;;-141.97;81.86
7018;BME280;3549;42.162;24.726;2023-04-08T02:44:25;47718.97;;;-141.97;82.11
7018;BME280;3549;42.162;24.726;2023-04-08T02:46:51;47724.75;;;-141.97;82.13
7018;BME280;3549;42.162;24.726;2023-04-08T02:49:16;47703.59;;;-141.97;81.74
7018;BME280;3549;42.162;24.726;2023-04-08T02:51:41;47588.28;;;-141.97;81.43
7018;BME280;3549;42.162;24.726;2023-04-08T02:54:07;47588.28;;;-141.97;82.55
7018;BME280;3549;42.162;24.726;2023-04-08T02:56:32;47657.47;;;-141.97;83.10
7018;BME280;3549;42.162;24.726;2023-04-08T02:58:58;47757.41;;;-141.97;84.30
7018;BME280;3549;42.162;24.726;2023-04-08T03:01:23;47617.09;;;-141.97;84.72
7018;BME280;3549;42.162;24.726;2023-04-08T03:03:49;47757.41;;;-141.97;84.95
7018;BME280;3549;42.162;24.726;2023-04-08T03:06:15;47597.88;;;-141.97;84.26
7018;BME280;3549;42.162;24.726;2023-04-08T03:08:40;47745.88;;;-141.97;84.64
7018;BME280;3549;42.162;24.726;2023-04-08T03:11:06;47742.03;;;-141.97;84.49
7018;BME280;3549;42.162;24.726;2023-04-08T03:13:31;47647.84;;;-141.97;83.41
7018;BME280;3549;42.162;24.726;2023-04-08T03:15:57;47680.53;;;-141.97;84.17
7018;BME280;3549;42.162;24.726;2023-04-08T03:18:23;47647.84;;;-141.97;85.10
7018;BME280;3549;42.162;24.726;2023-04-08T03:20:48;47561.38;;;-141.97;85.64
7018;BME280;3549;42.162;24.726;2023-04-08T03:23:13;47634.41;;;-141.97;85.85
7018;BME280;3549;42.162;24.726;2023-04-08T03:25:39;47707.44;;;-141.97;86.61
7018;BME280;3549;42.162;24.726;2023-04-08T03:28:04;47688.22;;;-141.97;87.20
7018;BME280;3549;42.162;24.726;2023-04-08T03:30:30;47667.06;;;-141.97;86.88
7018;BME280;3549;42.162;24.726;2023-04-08T03:32:56;47686.31;;;-141.97;86.83
7018;BME280;3549;42.162;24.726;2023-04-08T03:35:21;47707.44;;;-141.97;87.70
7018;BME280;3549;42.162;24.726;2023-04-08T03:37:46;47717.06;;;-141.97;86.92
7018;BME280;3549;42.162;24.726;2023-04-08T03:40:12;47669.00;;;-141.97;86.60
7018;BME280;3549;42.162;24.726;2023-04-08T03:42:38;47569.06;;;-141.97;85.91
7018;BME280;3549;42.162;24.726;2023-04-08T03:45:03;47726.66;;;-141.97;85.97
7018;BME280;3549;42.162;24.726;2023-04-08T03:47:29;47663.22;;;-141.97;87.20
7018;BME280;3549;42.162;24.726;2023-04-08T03:49:55;47726.66;;;-141.97;87.04
7018;BME280;3549;42.162;24.726;2023-04-08T03:52:20;47740.13;;;-141.97;87.95
7018;BME280;3549;42.162;24.726;2023-04-08T03:54:46;47565.22;;;-141.97;88.70
7018;BME280;3549;42.162;24.726;2023-04-08T03:57:11;47753.56;;;-141.97;88.66
7018;BME280;3549;42.162;24.726;2023-04-08T03:59:37;47588.28;;;-141.97;87.82
7018;BME280;3549;42.162;24.726;2023-04-08T04:02:04;47547.91;;;-141.97;87.99
7018;BME280;3549;42.162;24.726;2023-04-08T04:04:29;47624.78;;;-141.97;88.55
7018;BME280;3549;42.162;24.726;2023-04-08T04:06:54;47607.50;;;-141.97;87.54
7018;BME280;3549;42.162;24.726;2023-04-08T04:09:20;47642.09;;;-141.97;87.70
7018;BME280;3549;42.162;24.726;2023-04-08T04:11:45;47567.13;;;-141.97;88.28
7018;BME280;3549;42.162;24.726;2023-04-08T04:14:11;47647.84;;;-141.97;88.36
7018;BME280;3549;42.162;24.726;2023-04-08T04:16:36;47655.53;;;-141.97;89.18
7018;BME280;3549;42.162;24.726;2023-04-08T04:19:02;47595.97;;;-141.97;89.29
7018;BME280;3549;42.162;24.726;2023-04-08T04:21:27;47628.63;;;-141.97;88.73
7018;BME280;3549;42.162;24.726;2023-04-08T04:23:53;47619.03;;;-141.97;87.73
7018;BME280;3549;42.162;24.726;2023-04-08T04:26:19;47622.88;;;-141.97;87.68
7018;BME280;3549;42.162;24.726;2023-04-08T04:28:45;47638.25;;;-141.97;87.26
7018;BME280;3549;42.162;24.726;2023-04-08T04:31:17;47484.47;;;-141.97;87.41
7018;BME280;3549;42.162;24.726;2023-04-08T04:33:44;47565.22;;;-141.97;87.85
7018;BME280;3549;42.162;24.726;2023-04-08T04:36:09;47638.25;;;-141.97;87.85
7018;BME280;3549;42.162;24.726;2023-04-08T04:38:35;47480.63;;;-141.97;88.11
7018;BME280;3549;42.162;24.726;2023-04-08T04:41:01;47626.72;;;-141.97;87.65
7018;BME280;3549;42.162;24.726;2023-04-08T04:43:26;47590.19;;;-141.97;87.47
7018;BME280;3549;42.162;24.726;2023-04-08T04:45:52;47663.22;;;-141.97;86.89
7018;BME280;3549;42.162;24.726;2023-04-08T04:48:17;47767.03;;;-141.97;86.15
7018;BME280;3549;42.162;24.726;2023-04-08T04:50:42;47645.94;;;-141.97;86.33
7018;BME280;3549;42.162;24.726;2023-04-08T04:53:08;47734.34;;;-141.97;86.90
7018;BME280;3549;42.162;24.726;2023-04-08T04:55:33;47603.66;;;-141.97;87.03
7018;BME280;3549;42.162;24.726;2023-04-08T04:57:59;47505.63;;;-141.97;86.82
7018;BME280;3549;42.162;24.726;2023-04-08T05:00:24;47538.28;;;-141.97;86.83
7018;BME280;3549;42.162;24.726;2023-04-08T05:02:50;47688.22;;;-141.97;85.91
7018;BME280;3549;42.162;24.726;2023-04-08T05:05:15;47709.38;;;-141.97;85.52
7018;BME280;3549;42.162;24.726;2023-04-08T05:07:41;47692.06;;;-141.97;84.58
7018;BME280;3549;42.162;24.726;2023-04-08T05:10:06;47674.78;;;-141.97;83.34
7018;BME280;3549;42.162;24.726;2023-04-08T05:12:32;47663.22;;;-141.97;81.86
7018;BME280;3549;42.162;24.726;2023-04-08T05:14:57;47657.47;;;-141.97;82.24
7018;BME280;3549;42.162;24.726;2023-04-08T05:17:26;47726.66;;;-141.97;80.77
7018;BME280;3549;42.162;24.726;2023-04-08T05:19:51;47707.44;;;-141.97;80.22
7018;BME280;3549;42.162;24.726;2023-04-08T05:22:17;47578.66;;;-141.97;80.04
7018;BME280;3549;42.162;24.726;2023-04-08T05:24:43;47611.34;;;-141.97;80.60
7018;BME280;3549;42.162;24.726;2023-04-08T05:27:08;47684.38;;;-141.97;80.58
7018;BME280;3549;42.162;24.726;2023-04-08T05:29:34;47640.16;;;-141.97;80.32
7018;BME280;3549;42.162;24.726;2023-04-08T05:31:59;47657.47;;;-141.97;80.88
7018;BME280;3549;42.162;24.726;2023-04-08T05:34:25;47718.97;;;-141.97;81.91
7018;BME280;3549;42.162;24.726;2023-04-08T05:36:50;47669.00;;;-141.97;81.25
7018;BME280;3549;42.162;24.726;2023-04-08T05:39:17;47645.94;;;-141.97;80.99
7018;BME280;3549;42.162;24.726;2023-04-08T05:41:42;47665.16;;;-141.97;80.73
7018;BME280;3549;42.162;24.726;2023-04-08T05:44:09;47665.16;;;-141.97;80.57
7018;BME280;3549;42.162;24.726;2023-04-08T05:46:34;47595.97;;;-141.97;80.70
7018;BME280;3549;42.162;24.726;2023-04-08T05:48:59;47505.63;;;-141.97;80.50
7018;BME280;3549;42.162;24.726;2023-04-08T05:51:25;47699.75;;;-141.97;80.27
7018;BME280;3549;42.162;24.726;2023-04-08T05:53:50;47699.75;;;-141.97;79.10
7018;BME280;3549;42.162;24.726;2023-04-08T05:56:16;47669.00;;;-141.97;77.75
7018;BME280;3549;42.162;24.726;2023-04-08T05:58:41;47768.94;;;-141.97;77.29
7018;BME280;3549;42.162;24.726;2023-04-08T06:01:07;47569.06;;;-141.97;76.29
7018;BME280;3549;42.162;24.726;2023-04-08T06:03:32;47557.53;;;-141.97;75.04
7018;BME280;3549;42.162;24.726;2023-04-08T06:05:57;47669.00;;;-141.97;74.47
7018;BME280;3549;42.162;24.726;2023-04-08T06:08:23;47599.81;;;-141.97;72.95
7018;BME280;3549;42.162;24.726;2023-04-08T06:10:51;47757.41;;;-141.97;72.33
7018;BME280;3549;42.162;24.726;2023-04-08T06:13:17;47672.84;;;-141.97;72.69
7018;BME280;3549;42.162;24.726;2023-04-08T06:15:44;47619.03;;;-141.97;73.63
7018;BME280;3549;42.162;24.726;2023-04-08T06:18:10;47745.88;;;-141.97;72.78
7018;BME280;3549;42.162;24.726;2023-04-08T06:20:35;47622.88;;;-141.97;72.35
7018;BME280;3549;42.162;24.726;2023-04-08T06:23:00;47688.22;;;-141.97;71.71
7018;BME280;3549;42.162;24.726;2023-04-08T06:25:26;47507.53;;;-141.97;70.95
7018;BME280;3549;42.162;24.726;2023-04-08T06:27:51;47680.53;;;-141.97;69.78
7018;BME280;3549;42.162;24.726;2023-04-08T06:30:17;47628.63;;;-141.97;67.43
7018;BME280;3549;42.162;24.726;2023-04-08T06:32:42;47640.16;;;-141.97;68.40
7018;BME280;3549;42.162;24.726;2023-04-08T06:35:11;47817.00;;;-141.97;68.10
7018;BME280;3549;42.162;24.726;2023-04-08T06:37:36;47674.78;;;-141.97;68.27
7018;BME280;3549;42.162;24.726;2023-04-08T06:40:03;47615.19;;;-141.97;69.27
7018;BME280;3549;42.162;24.726;2023-04-08T06:42:29;47613.25;;;-141.97;69.21
7018;BME280;3549;42.162;24.726;2023-04-08T06:44:55;47586.34;;;-141.97;69.60
7018;BME280;3549;42.162;24.726;2023-04-08T06:47:20;47676.69;;;-141.97;69.26
7018;BME280;3549;42.162;24.726;2023-04-08T06:49:47;47738.19;;;-141.97;69.40
7018;BME280;3549;42.162;24.726;2023-04-08T06:52:12;47536.38;;;-141.97;68.81
7018;BME280;3549;42.162;24.726;2023-04-08T06:54:38;47765.09;;;-141.97;69.33
7018;BME280;3549;42.162;24.726;2023-04-08T06:57:03;47521.00;;;-141.97;68.54
7018;BME280;3549;42.162;24.726;2023-04-08T06:59:28;47757.41;;;-141.97;68.35
7018;BME280;3549;42.162;24.726;2023-04-08T07:01:54;47753.56;;;-141.97;68.76
7018;BME280;3549;42.162;24.726;2023-04-08T07:04:19;47653.63;;;-141.97;67.52
7018;BME280;3549;42.162;24.726;2023-04-08T07:06:45;47761.25;;;-141.97;65.70
7018;BME280;3549;42.162;24.726;2023-04-08T07:09:11;47649.78;;;-141.97;62.89
7018;BME280;3549;42.162;24.726;2023-04-08T07:11:36;47674.78;;;-141.97;63.08
7018;BME280;3549;42.162;24.726;2023-04-08T07:14:01;47720.91;;;-141.97;63.28
7018;BME280;3549;42.162;24.726;2023-04-08T07:16:27;47715.13;;;-141.97;65.43
7018;BME280;3549;42.162;24.726;2023-04-08T07:18:52;47467.19;;;-141.97;63.67
7018;BME280;3549;42.162;24.726;2023-04-08T07:21:18;47682.47;;;-141.97;60.53
7018;BME280;3549;42.162;24.726;2023-04-08T07:23:43;47653.63;;;-141.97;57.24
7018;BME280;3549;42.162;24.726;2023-04-08T07:26:09;47584.44;;;-141.97;54.62
7018;BME280;3549;42.162;24.726;2023-04-08T07:28:34;47707.44;;;-141.97;53.88
7018;BME280;3549;42.162;24.726;2023-04-08T07:31:16;47776.63;;;-141.97;51.56
7018;BME280;3549;42.162;24.726;2023-04-08T07:33:43;47588.28;;;-141.97;51.93
7018;BME280;3549;42.162;24.726;2023-04-08T07:36:09;47657.47;;;-141.97;51.79
7018;BME280;3549;42.162;24.726;2023-04-08T07:38:36;47653.63;;;-141.97;50.31
7018;BME280;3549;42.162;24.726;2023-04-08T07:41:02;47599.81;;;-141.97;49.22
7018;BME280;3549;42.162;24.726;2023-04-08T07:43:27;47521.00;;;-141.97;49.22
7018;BME280;3549;42.162;24.726;2023-04-08T07:45:59;47546.00;;;-141.97;50.76
7018;BME280;3549;42.162;24.726;2023-04-08T07:48:27;47532.53;;;-141.97;50.81
7018;BME280;3549;42.162;24.726;2023-04-08T07:50:52;47726.66;;;-141.97;51.45
7018;BME280;3549;42.162;24.726;2023-04-08T07:53:17;47638.25;;;-141.97;50.29
7018;BME280;3549;42.162;24.726;2023-04-08T07:55:43;47653.63;;;-141.97;50.88
7018;BME280;3549;42.162;24.726;2023-04-08T07:58:08;47655.53;;;-141.97;48.93
7018;BME280;3549;42.162;24.726;2023-04-08T08:00:33;47592.13;;;-141.97;49.24
7018;BME280;3549;42.162;24.726;2023-04-08T08:02:59;47709.38;;;-141.97;48.04
7018;BME280;3549;42.162;24.726;2023-04-08T08:05:24;47603.66;;;-141.97;47.92
7018;BME280;3549;42.162;24.726;2023-04-08T08:07:50;47619.03;;;-141.97;47.71
7018;BME280;3549;42.162;24.726;2023-04-08T08:10:15;47630.56;;;-141.97;47.72
7018;BME280;3549;42.162;24.726;2023-04-08T08:12:41;47770.88;;;-141.97;47.51
7018;BME280;3549;42.162;24.726;2023-04-08T08:15:07;47695.91;;;-141.97;48.30
7018;BME280;3549;42.162;24.726;2023-04-08T08:17:32;47634.41;;;-141.97;46.96
7018;BME280;3549;42.162;24.726;2023-04-08T08:19:59;47409.53;;;-141.97;49.51
7018;BME280;3549;42.162;24.726;2023-04-08T08:22:25;47799.72;;;-141.97;48.88
7018;BME280;3549;42.162;24.726;2023-04-08T08:24:55;47661.31;;;-141.97;47.90
7018;BME280;3549;42.162;24.726;2023-04-08T08:27:21;47626.72;;;-141.97;47.02
7018;BME280;3549;42.162;24.726;2023-04-08T08:29:47;47659.38;;;-141.97;46.19
7018;BME280;3549;42.162;24.726;2023-04-08T08:32:13;47636.31;;;-141.97;45.48
7018;BME280;3549;42.162;24.726;2023-04-08T08:34:38;47572.91;;;-141.97;45.69
7018;BME280;3549;42.162;24.726;2023-04-08T08:37:04;47669.00;;;-141.97;44.91
7018;BME280;3549;42.162;24.726;2023-04-08T08:39:29;47517.16;;;-141.97;43.86
7018;BME280;3549;42.162;24.726;2023-04-08T08:41:55;47782.41;;;-141.97;43.28
7018;BME280;3549;42.162;24.726;2023-04-08T08:44:21;47599.81;;;-141.97;43.00
7018;BME280;3549;42.162;24.726;2023-04-08T08:46:47;47647.84;;;-141.97;43.16
7018;BME280;3549;42.162;24.726;2023-04-08T08:49:14;47595.97;;;-141.97;44.48
7018;BME280;3549;42.162;24.726;2023-04-08T08:51:39;47592.13;;;-141.97;45.17
7018;BME280;3549;42.162;24.726;2023-04-08T08:54:06;47592.13;;;-141.97;44.04
7018;BME280;3549;42.162;24.726;2023-04-08T08:56:32;47609.41;;;-141.97;45.08
7018;BME280;3549;42.162;24.726;2023-04-08T08:58:59;47607.50;;;-141.97;43.21
7018;BME280;3549;42.162;24.726;2023-04-08T09:01:38;47494.09;;;-141.97;43.62
7018;BME280;3549;42.162;24.726;2023-04-08T09:04:15;47576.75;;;-141.97;44.04
7018;BME280;3549;42.162;24.726;2023-04-08T09:06:43;47642.09;;;-141.97;45.00
7018;BME280;3549;42.162;24.726;2023-04-08T09:09:10;47749.72;;;-141.97;46.91
7018;BME280;3549;42.162;24.726;2023-04-08T09:11:38;47626.72;;;-141.97;46.36
7018;BME280;3549;42.162;24.726;2023-04-08T09:14:04;47542.16;;;-141.97;45.32
7018;BME280;3549;42.162;24.726;2023-04-08T09:16:31;47617.09;;;-141.97;45.71
7018;BME280;3549;42.162;24.726;2023-04-08T09:19:07;47703.59;;;-141.97;44.64
7018;BME280;3549;42.162;24.726;2023-04-08T09:21:34;47688.22;;;-141.97;42.53
7018;BME280;3549;42.162;24.726;2023-04-08T09:24:00;47499.84;;;-141.97;41.91
7018;BME280;3549;42.162;24.726;2023-04-08T09:26:25;47669.00;;;-141.97;41.59
7018;BME280;3549;42.162;24.726;2023-04-08T09:29:09;47632.47;;;-141.97;42.19
7018;BME280;3549;42.162;24.726;2023-04-08T09:31:38;47634.41;;;-141.97;42.03
7018;BME280;3549;42.162;24.726;2023-04-08T09:34:13;47638.25;;;-141.97;42.56
7018;BME280;3549;42.162;24.726;2023-04-08T09:36:41;47551.75;;;-141.97;42.96
7018;BME280;3549;42.162;24.726;2023-04-08T09:39:06;47728.59;;;-141.97;42.25
7018;BME280;3549;42.162;24.726;2023-04-08T09:41:36;47517.16;;;-141.97;41.60
7018;BME280;3549;42.162;24.726;2023-04-08T09:44:04;47595.97;;;-141.97;40.01
7018;BME280;3549;42.162;24.726;2023-04-08T09:49:15;47632.47;;;-141.97;41.93
7018;BME280;3549;42.162;24.726;2023-04-08T09:51:49;47655.53;;;-141.97;39.31
7018;BME280;3549;42.162;24.726;2023-04-08T09:54:24;47634.41;;;-141.97;38.57
7018;BME280;3549;42.162;24.726;2023-04-08T09:57:00;47472.94;;;-141.97;40.00
7018;BME280;3549;42.162;24.726;2023-04-08T09:59:30;47567.13;;;-141.97;40.45
7018;BME280;3549;42.162;24.726;2023-04-08T10:02:00;47613.25;;;-141.97;39.45
7018;BME280;3549;42.162;24.726;2023-04-08T10:04:34;47651.69;;;-141.97;38.52
7018;BME280;3549;42.162;24.726;2023-04-08T10:07:05;47642.09;;;-141.97;38.85
7018;BME280;3549;42.162;24.726;2023-04-08T10:09:31;47745.88;;;-141.97;37.35
7018;BME280;3549;42.162;24.726;2023-04-08T10:11:57;47767.03;;;-141.97;36.14
7018;BME280;3549;42.162;24.726;2023-04-08T10:14:23;47578.66;;;-141.97;35.69
7018;BME280;3549;42.162;24.726;2023-04-08T10:17:24;47778.56;;;-141.97;36.97
7018;BME280;3549;42.162;24.726;2023-04-08T10:19:54;47603.66;;;-141.97;36.30
7018;BME280;3549;42.162;24.726;2023-04-08T10:27:42;47613.25;;;-141.97;38.40
7018;BME280;3549;42.162;24.726;2023-04-08T10:32:57;47557.53;;;-141.97;38.25
7018;BME280;3549;42.162;24.726;2023-04-08T10:35:37;47557.53;;;-141.97;37.44
7018;BME280;3549;42.162;24.726;2023-04-08T10:38:07;47601.72;;;-141.97;37.12
7018;BME280;3549;42.162;24.726;2023-04-08T10:40:37;47584.44;;;-141.97;36.84
7018;BME280;3549;42.162;24.726;2023-04-08T10:43:03;47592.13;;;-141.97;37.01
7018;BME280;3549;42.162;24.726;2023-04-08T10:45:29;47580.59;;;-141.97;37.22
7018;BME280;3549;42.162;24.726;2023-04-08T10:47:55;47586.34;;;-141.97;38.12
7018;BME280;3549;42.162;24.726;2023-04-08T10:50:21;47574.81;;;-141.97;38.41
7018;BME280;3549;42.162;24.726;2023-04-08T10:52:51;47626.72;;;-141.97;37.97
7018;BME280;3549;42.162;24.726;2023-04-08T10:55:23;47567.13;;;-141.97;37.21
7018;BME280;3549;42.162;24.726;2023-04-08T10:57:50;47697.84;;;-141.97;37.13
7018;BME280;3549;42.162;24.726;2023-04-08T11:00:25;47649.78;;;-141.97;37.62
7018;BME280;3549;42.162;24.726;2023-04-08T11:03:00;47532.53;;;-141.97;37.76
7018;BME280;3549;42.162;24.726;2023-04-08T11:05:25;47582.50;;;-141.97;37.79
7018;BME280;3549;42.162;24.726;2023-04-08T11:07:51;47534.44;;;-141.97;38.00
7018;BME280;3549;42.162;24.726;2023-04-08T11:10:16;47490.25;;;-141.97;38.75
7018;BME280;3549;42.162;24.726;2023-04-08T11:12:43;47588.28;;;-141.97;38.88
7018;BME280;3549;42.162;24.726;2023-04-08T11:15:09;47642.09;;;-141.97;38.59
7018;BME280;3549;42.162;24.726;2023-04-08T11:17:35;47465.25;;;-141.97;38.57
7018;BME280;3549;42.162;24.726;2023-04-08T11:20:01;47465.25;;;-141.97;38.05
7018;BME280;3549;42.162;24.726;2023-04-08T11:22:30;47484.47;;;-141.97;37.71
7018;BME280;3549;42.162;24.726;2023-04-08T11:24:58;47749.72;;;-141.97;36.76
7018;BME280;3549;42.162;24.726;2023-04-08T11:27:24;47672.84;;;-141.97;36.47
7018;BME280;3549;42.162;24.726;2023-04-08T11:29:57;47688.22;;;-141.97;36.34
7018;BME280;3549;42.162;24.726;2023-04-08T11:32:23;47580.59;;;-141.97;36.42
7018;BME280;3549;42.162;24.726;2023-04-08T11:34:49;47492.16;;;-141.97;36.34
7018;BME280;3549;42.162;24.726;2023-04-08T11:37:15;47465.25;;;-141.97;36.08
7018;BME280;3549;42.162;24.726;2023-04-08T11:39:45;47471.03;;;-141.97;35.93
7018;BME280;3549;42.162;24.726;2023-04-08T11:42:30;47597.88;;;-141.97;36.42
7018;BME280;3549;42.162;24.726;2023-04-08T11:44:57;47453.72;;;-141.97;36.99
7018;BME280;3549;42.162;24.726;2023-04-08T11:47:32;47582.50;;;-141.97;36.89
7018;BME280;3549;42.162;24.726;2023-04-08T11:50:00;47584.44;;;-141.97;36.35
7018;BME280;3549;42.162;24.726;2023-04-08T11:55:10;47680.53;;;-141.97;35.54
7018;BME280;3549;42.162;24.726;2023-04-08T11:57:36;47472.94;;;-141.97;36.71
7018;BME280;3549;42.162;24.726;2023-04-08T12:00:06;47582.50;;;-141.97;36.76
7018;BME280;3549;42.162;24.726;2023-04-08T12:02:32;47672.84;;;-141.97;37.19
7018;BME280;3549;42.162;24.726;2023-04-08T12:04:57;47586.34;;;-141.97;37.02
7018;BME280;3549;42.162;24.726;2023-04-08T12:07:23;47530.59;;;-141.97;37.28
7018;BME280;3549;42.162;24.726;2023-04-08T12:09:48;47644.00;;;-141.97;36.00
7018;BME280;3549;42.162;24.726;2023-04-08T12:12:14;47557.53;;;-141.97;35.42
7018;BME280;3549;42.162;24.726;2023-04-08T12:14:39;47588.28;;;-141.97;35.06
7018;BME280;3549;42.162;24.726;2023-04-08T12:17:05;47455.66;;;-141.97;35.25
7018;BME280;3549;42.162;24.726;2023-04-08T12:19:30;47486.41;;;-141.97;35.78
7018;BME280;3549;42.162;24.726;2023-04-08T12:21:56;47549.84;;;-141.97;36.01
7018;BME280;3549;42.162;24.726;2023-04-08T12:24:21;47592.13;;;-141.97;36.99
7018;BME280;3549;42.162;24.726;2023-04-08T12:26:46;47638.25;;;-141.97;37.57
7018;BME280;3549;42.162;24.726;2023-04-08T12:29:12;47532.53;;;-141.97;37.60
7018;BME280;3549;42.162;24.726;2023-04-08T12:31:37;47611.34;;;-141.97;37.73
7018;BME280;3549;42.162;24.726;2023-04-08T12:34:03;47669.00;;;-141.97;37.90
7018;BME280;3549;42.162;24.726;2023-04-08T12:36:28;47718.97;;;-141.97;37.02
7018;BME280;3549;42.162;24.726;2023-04-08T12:38:53;47415.28;;;-141.97;37.50
7018;BME280;3549;42.162;24.726;2023-04-08T12:41:19;47453.72;;;-141.97;37.68
7018;BME280;3549;42.162;24.726;2023-04-08T12:43:44;47595.97;;;-141.97;37.98
7018;BME280;3549;42.162;24.726;2023-04-08T12:46:10;47394.16;;;-141.97;38.22
7018;BME280;3549;42.162;24.726;2023-04-08T12:48:36;47599.81;;;-141.97;38.50
7018;BME280;3549;42.162;24.726;2023-04-08T12:51:01;47619.03;;;-141.97;38.32
7018;BME280;3549;42.162;24.726;2023-04-08T12:53:27;47588.28;;;-141.97;37.09
7018;BME280;3549;42.162;24.726;2023-04-08T12:55:52;47607.50;;;-141.97;36.76
7018;BME280;3549;42.162;24.726;2023-04-08T12:58:22;47503.69;;;-141.97;35.40
7018;BME280;3549;42.162;24.726;2023-04-08T13:00:47;47682.47;;;-141.97;35.60
7018;BME280;3549;42.162;24.726;2023-04-08T13:03:13;47686.31;;;-141.97;36.38
7018;BME280;3549;42.162;24.726;2023-04-08T13:05:41;47534.44;;;-141.97;37.83
7018;BME280;3549;42.162;24.726;2023-04-08T13:08:06;47613.25;;;-141.97;38.01
7018;BME280;3549;42.162;24.726;2023-04-08T13:10:32;47499.84;;;-141.97;37.53